sensor_id;sensor_type;location;lat;lon;timestamp;P1;durP1;ratioP1;P2;durP2;ratioP2
62704;SDS011;48767;50.754;8.772;2022-07-23T00:00:03;16.08;;;8.55;;
62704;SDS011;48767;50.754;8.772;2022-07-23T00:02:32;16.42;;;8.85;;
62704;SDS011;48767;50.754;8.772;2022-07-23T00:07:24;12.38;;;7.97;;
62704;SDS011;48767;50.754;8.772;2022-07-23T00:09:51;13.40;;;7.88;;
62704;SDS011;48767;50.754;8.772;2022-07-23T00:12:18;15.75;;;9.43;;
62704;SDS011;48767;50.754;8.772;2022-07-23T00:14:44;16.23;;;9.00;;
62704;SDS011;48767;50.754;8.772;2022-07-23T00:17:11;13.18;;;6.82;;
62704;SDS011;48767;50.754;8.772;2022-07-23T00:19:38;15.80;;;9.15;;
62704;SDS011;48767;50.754;8.772;2022-07-23T00:22:05;11.23;;;7.03;;
62704;SDS011;48767;50.754;8.772;2022-07-23T00:24:31;15.85;;;6.25;;
62704;SDS011;48767;50.754;8.772;2022-07-23T00:26:58;14.35;;;9.68;;
62704;SDS011;48767;50.754;8.772;2022-07-23T00:29:24;19.15;;;10.15;;
62704;SDS011;48767;50.754;8.772;2022-07-23T00:31:51;18.25;;;9.88;;
62704;SDS011;48767;50.754;8.772;2022-07-23T00:34:17;22.83;;;12.30;;
62704;SDS011;48767;50.754;8.772;2022-07-23T00:36:45;22.63;;;11.30;;
62704;SDS011;48767;50.754;8.772;2022-07-23T00:39:12;22.20;;;11.63;;
62704;SDS011;48767;50.754;8.772;2022-07-23T00:41:38;23.38;;;12.15;;
62704;SDS011;48767;50.754;8.772;2022-07-23T00:44:14;22.58;;;12.00;;
62704;SDS011;48767;50.754;8.772;2022-07-23T00:46:44;22.65;;;11.13;;
62704;SDS011;48767;50.754;8.772;2022-07-23T00:49:12;18.77;;;10.32;;
62704;SDS011;48767;50.754;8.772;2022-07-23T00:51:38;22.77;;;12.65;;
62704;SDS011;48767;50.754;8.772;2022-07-23T00:54:06;24.48;;;12.40;;
62704;SDS011;48767;50.754;8.772;2022-07-23T00:56:33;22.25;;;11.85;;
62704;SDS011;48767;50.754;8.772;2022-07-23T00:59:00;19.75;;;11.20;;
62704;SDS011;48767;50.754;8.772;2022-07-23T01:01:27;22.85;;;12.13;;
62704;SDS011;48767;50.754;8.772;2022-07-23T01:03:54;22.80;;;10.52;;
62704;SDS011;48767;50.754;8.772;2022-07-23T01:06:20;23.10;;;11.50;;
62704;SDS011;48767;50.754;8.772;2022-07-23T01:08:47;21.48;;;12.10;;
62704;SDS011;48767;50.754;8.772;2022-07-23T01:11:15;20.80;;;11.60;;
62704;SDS011;48767;50.754;8.772;2022-07-23T01:13:42;25.55;;;13.50;;
62704;SDS011;48767;50.754;8.772;2022-07-23T01:16:09;20.20;;;10.13;;
62704;SDS011;48767;50.754;8.772;2022-07-23T01:18:36;20.10;;;11.43;;
62704;SDS011;48767;50.754;8.772;2022-07-23T01:21:02;20.35;;;12.80;;
62704;SDS011;48767;50.754;8.772;2022-07-23T01:23:30;18.17;;;11.60;;
62704;SDS011;48767;50.754;8.772;2022-07-23T01:25:57;20.52;;;11.48;;
62704;SDS011;48767;50.754;8.772;2022-07-23T01:28:23;20.00;;;12.40;;
62704;SDS011;48767;50.754;8.772;2022-07-23T01:30:50;16.65;;;10.30;;
62704;SDS011;48767;50.754;8.772;2022-07-23T01:33:16;19.02;;;10.63;;
62704;SDS011;48767;50.754;8.772;2022-07-23T01:35:43;15.82;;;10.30;;
62704;SDS011;48767;50.754;8.772;2022-07-23T01:38:09;20.83;;;11.85;;
62704;SDS011;48767;50.754;8.772;2022-07-23T01:40:37;23.48;;;11.60;;
62704;SDS011;48767;50.754;8.772;2022-07-23T01:43:04;18.55;;;9.93;;
62704;SDS011;48767;50.754;8.772;2022-07-23T01:45:31;20.65;;;11.40;;
62704;SDS011;48767;50.754;8.772;2022-07-23T01:47:57;25.20;;;13.48;;
62704;SDS011;48767;50.754;8.772;2022-07-23T01:50:24;24.02;;;12.75;;
62704;SDS011;48767;50.754;8.772;2022-07-23T01:52:50;24.85;;;13.10;;
62704;SDS011;48767;50.754;8.772;2022-07-23T01:55:17;20.33;;;11.65;;
62704;SDS011;48767;50.754;8.772;2022-07-23T01:57:44;23.83;;;11.88;;
62704;SDS011;48767;50.754;8.772;2022-07-23T02:00:11;23.63;;;11.57;;
62704;SDS011;48767;50.754;8.772;2022-07-23T02:02:38;25.35;;;14.52;;
62704;SDS011;48767;50.754;8.772;2022-07-23T02:05:05;26.40;;;13.63;;
62704;SDS011;48767;50.754;8.772;2022-07-23T02:07:31;19.30;;;11.95;;
62704;SDS011;48767;50.754;8.772;2022-07-23T02:09:58;21.30;;;12.82;;
62704;SDS011;48767;50.754;8.772;2022-07-23T02:12:24;25.77;;;13.05;;
62704;SDS011;48767;50.754;8.772;2022-07-23T02:14:52;33.83;;;14.85;;
62704;SDS011;48767;50.754;8.772;2022-07-23T02:17:19;22.92;;;12.57;;
62704;SDS011;48767;50.754;8.772;2022-07-23T02:19:45;23.02;;;12.13;;
62704;SDS011;48767;50.754;8.772;2022-07-23T02:22:11;23.70;;;13.95;;
62704;SDS011;48767;50.754;8.772;2022-07-23T02:24:38;24.73;;;13.80;;
62704;SDS011;48767;50.754;8.772;2022-07-23T02:27:04;25.08;;;13.50;;
62704;SDS011;48767;50.754;8.772;2022-07-23T02:29:31;31.75;;;15.23;;
62704;SDS011;48767;50.754;8.772;2022-07-23T02:31:59;28.95;;;14.52;;
62704;SDS011;48767;50.754;8.772;2022-07-23T02:34:25;32.33;;;15.07;;
62704;SDS011;48767;50.754;8.772;2022-07-23T02:36:51;29.45;;;13.98;;
62704;SDS011;48767;50.754;8.772;2022-07-23T02:39:18;32.92;;;16.48;;
62704;SDS011;48767;50.754;8.772;2022-07-23T02:41:44;26.13;;;13.25;;
62704;SDS011;48767;50.754;8.772;2022-07-23T02:44:11;24.05;;;13.20;;
62704;SDS011;48767;50.754;8.772;2022-07-23T02:46:37;32.25;;;14.35;;
62704;SDS011;48767;50.754;8.772;2022-07-23T02:49:05;24.85;;;13.35;;
62704;SDS011;48767;50.754;8.772;2022-07-23T02:51:32;24.27;;;12.70;;
62704;SDS011;48767;50.754;8.772;2022-07-23T02:53:58;27.25;;;13.38;;
62704;SDS011;48767;50.754;8.772;2022-07-23T02:56:24;26.58;;;12.52;;
62704;SDS011;48767;50.754;8.772;2022-07-23T02:58:51;26.90;;;13.45;;
62704;SDS011;48767;50.754;8.772;2022-07-23T03:01:17;22.63;;;11.82;;
62704;SDS011;48767;50.754;8.772;2022-07-23T03:03:44;21.65;;;12.32;;
62704;SDS011;48767;50.754;8.772;2022-07-23T03:06:12;21.77;;;11.35;;
62704;SDS011;48767;50.754;8.772;2022-07-23T03:08:38;22.70;;;11.77;;
62704;SDS011;48767;50.754;8.772;2022-07-23T03:11:05;22.40;;;12.45;;
62704;SDS011;48767;50.754;8.772;2022-07-23T03:13:35;27.60;;;13.68;;
62704;SDS011;48767;50.754;8.772;2022-07-23T03:16:02;27.67;;;15.27;;
62704;SDS011;48767;50.754;8.772;2022-07-23T03:18:29;24.90;;;14.32;;
62704;SDS011;48767;50.754;8.772;2022-07-23T03:20:56;24.45;;;15.13;;
62704;SDS011;48767;50.754;8.772;2022-07-23T03:23:24;22.92;;;12.63;;
62704;SDS011;48767;50.754;8.772;2022-07-23T03:25:50;21.67;;;12.40;;
62704;SDS011;48767;50.754;8.772;2022-07-23T03:28:17;17.67;;;10.95;;
62704;SDS011;48767;50.754;8.772;2022-07-23T03:30:45;25.27;;;12.30;;
62704;SDS011;48767;50.754;8.772;2022-07-23T03:35:38;21.73;;;12.20;;
62704;SDS011;48767;50.754;8.772;2022-07-23T03:38:05;26.48;;;12.88;;
62704;SDS011;48767;50.754;8.772;2022-07-23T03:40:33;20.40;;;12.60;;
62704;SDS011;48767;50.754;8.772;2022-07-23T03:43:00;19.92;;;11.90;;
62704;SDS011;48767;50.754;8.772;2022-07-23T03:45:26;23.52;;;14.18;;
62704;SDS011;48767;50.754;8.772;2022-07-23T03:47:52;20.13;;;12.05;;
62704;SDS011;48767;50.754;8.772;2022-07-23T03:50:19;23.98;;;11.60;;
62704;SDS011;48767;50.754;8.772;2022-07-23T03:52:46;22.35;;;11.70;;
62704;SDS011;48767;50.754;8.772;2022-07-23T03:55:13;19.73;;;11.38;;
62704;SDS011;48767;50.754;8.772;2022-07-23T03:57:41;19.33;;;11.32;;
62704;SDS011;48767;50.754;8.772;2022-07-23T04:02:36;23.35;;;12.60;;
62704;SDS011;48767;50.754;8.772;2022-07-23T04:05:03;19.65;;;12.50;;
62704;SDS011;48767;50.754;8.772;2022-07-23T04:07:30;27.33;;;11.88;;
62704;SDS011;48767;50.754;8.772;2022-07-23T04:09:57;24.65;;;11.95;;
62704;SDS011;48767;50.754;8.772;2022-07-23T04:12:23;26.95;;;12.52;;
62704;SDS011;48767;50.754;8.772;2022-07-23T04:14:51;21.23;;;10.60;;
62704;SDS011;48767;50.754;8.772;2022-07-23T04:17:18;20.33;;;12.15;;
62704;SDS011;48767;50.754;8.772;2022-07-23T04:19:44;23.20;;;11.75;;
62704;SDS011;48767;50.754;8.772;2022-07-23T04:22:11;19.70;;;11.95;;
62704;SDS011;48767;50.754;8.772;2022-07-23T04:24:38;18.88;;;10.55;;
62704;SDS011;48767;50.754;8.772;2022-07-23T04:27:05;20.17;;;12.50;;
62704;SDS011;48767;50.754;8.772;2022-07-23T04:29:32;25.75;;;11.95;;
62704;SDS011;48767;50.754;8.772;2022-07-23T04:32:00;22.85;;;12.35;;
62704;SDS011;48767;50.754;8.772;2022-07-23T04:36:52;19.73;;;10.25;;
62704;SDS011;48767;50.754;8.772;2022-07-23T04:39:19;18.98;;;10.20;;
62704;SDS011;48767;50.754;8.772;2022-07-23T04:41:46;24.40;;;11.02;;
62704;SDS011;48767;50.754;8.772;2022-07-23T04:44:12;25.48;;;10.27;;
62704;SDS011;48767;50.754;8.772;2022-07-23T04:46:39;18.08;;;10.05;;
62704;SDS011;48767;50.754;8.772;2022-07-23T04:49:07;16.63;;;9.30;;
62704;SDS011;48767;50.754;8.772;2022-07-23T04:51:33;15.93;;;9.02;;
62704;SDS011;48767;50.754;8.772;2022-07-23T04:54:00;19.52;;;10.50;;
62704;SDS011;48767;50.754;8.772;2022-07-23T04:56:26;17.98;;;10.02;;
62704;SDS011;48767;50.754;8.772;2022-07-23T04:58:53;23.17;;;10.43;;
62704;SDS011;48767;50.754;8.772;2022-07-23T05:01:19;18.20;;;8.95;;
62704;SDS011;48767;50.754;8.772;2022-07-23T05:03:46;20.23;;;10.52;;
62704;SDS011;48767;50.754;8.772;2022-07-23T05:06:14;15.07;;;9.50;;
62704;SDS011;48767;50.754;8.772;2022-07-23T05:11:07;20.10;;;11.18;;
62704;SDS011;48767;50.754;8.772;2022-07-23T05:13:33;19.27;;;10.43;;
62704;SDS011;48767;50.754;8.772;2022-07-23T05:16:00;20.02;;;10.40;;
62704;SDS011;48767;50.754;8.772;2022-07-23T05:18:26;23.45;;;10.20;;
62704;SDS011;48767;50.754;8.772;2022-07-23T05:20:53;19.33;;;10.93;;
62704;SDS011;48767;50.754;8.772;2022-07-23T05:23:21;18.27;;;9.05;;
62704;SDS011;48767;50.754;8.772;2022-07-23T05:25:47;19.52;;;10.90;;
62704;SDS011;48767;50.754;8.772;2022-07-23T05:28:15;16.77;;;9.93;;
62704;SDS011;48767;50.754;8.772;2022-07-23T05:30:41;17.85;;;9.32;;
62704;SDS011;48767;50.754;8.772;2022-07-23T05:33:08;16.67;;;10.10;;
62704;SDS011;48767;50.754;8.772;2022-07-23T05:35:34;14.30;;;8.75;;
62704;SDS011;48767;50.754;8.772;2022-07-23T05:38:01;16.90;;;9.23;;
62704;SDS011;48767;50.754;8.772;2022-07-23T05:40:28;14.55;;;8.20;;
62704;SDS011;48767;50.754;8.772;2022-07-23T05:45:21;14.15;;;8.93;;
62704;SDS011;48767;50.754;8.772;2022-07-23T05:47:48;19.85;;;11.35;;
62704;SDS011;48767;50.754;8.772;2022-07-23T05:50:15;13.15;;;8.75;;
62704;SDS011;48767;50.754;8.772;2022-07-23T05:52:42;17.42;;;8.98;;
62704;SDS011;48767;50.754;8.772;2022-07-23T05:55:10;19.27;;;10.48;;
62704;SDS011;48767;50.754;8.772;2022-07-23T05:57:39;14.07;;;9.73;;
62704;SDS011;48767;50.754;8.772;2022-07-23T06:00:07;15.05;;;9.07;;
62704;SDS011;48767;50.754;8.772;2022-07-23T06:02:35;14.73;;;9.80;;
62704;SDS011;48767;50.754;8.772;2022-07-23T06:05:03;18.52;;;10.93;;
62704;SDS011;48767;50.754;8.772;2022-07-23T06:07:30;17.15;;;10.68;;
62704;SDS011;48767;50.754;8.772;2022-07-23T06:09:56;15.63;;;9.45;;
62704;SDS011;48767;50.754;8.772;2022-07-23T06:12:23;13.82;;;8.25;;
62704;SDS011;48767;50.754;8.772;2022-07-23T06:17:18;17.13;;;9.77;;
62704;SDS011;48767;50.754;8.772;2022-07-23T06:19:44;18.13;;;10.65;;
62704;SDS011;48767;50.754;8.772;2022-07-23T06:22:11;15.07;;;8.05;;
62704;SDS011;48767;50.754;8.772;2022-07-23T06:24:37;12.40;;;8.55;;
62704;SDS011;48767;50.754;8.772;2022-07-23T06:27:04;15.13;;;8.32;;
62704;SDS011;48767;50.754;8.772;2022-07-23T06:29:31;14.40;;;8.07;;
62704;SDS011;48767;50.754;8.772;2022-07-23T06:31:59;16.90;;;8.70;;
62704;SDS011;48767;50.754;8.772;2022-07-23T06:36:51;13.68;;;7.72;;
62704;SDS011;48767;50.754;8.772;2022-07-23T06:39:18;18.05;;;8.93;;
62704;SDS011;48767;50.754;8.772;2022-07-23T06:41:45;13.32;;;8.63;;
62704;SDS011;48767;50.754;8.772;2022-07-23T06:44:11;13.70;;;8.18;;
62704;SDS011;48767;50.754;8.772;2022-07-23T06:46:38;11.98;;;6.32;;
62704;SDS011;48767;50.754;8.772;2022-07-23T06:49:06;13.18;;;7.57;;
62704;SDS011;48767;50.754;8.772;2022-07-23T06:51:33;10.15;;;6.18;;
62704;SDS011;48767;50.754;8.772;2022-07-23T06:53:59;12.85;;;7.38;;
62704;SDS011;48767;50.754;8.772;2022-07-23T06:56:26;17.70;;;8.48;;
62704;SDS011;48767;50.754;8.772;2022-07-23T06:58:52;10.40;;;6.82;;
62704;SDS011;48767;50.754;8.772;2022-07-23T07:01:19;14.02;;;7.60;;
62704;SDS011;48767;50.754;8.772;2022-07-23T07:03:46;14.00;;;6.72;;
62704;SDS011;48767;50.754;8.772;2022-07-23T07:06:14;9.60;;;6.90;;
62704;SDS011;48767;50.754;8.772;2022-07-23T07:08:40;10.70;;;6.53;;
62704;SDS011;48767;50.754;8.772;2022-07-23T07:11:08;9.70;;;6.57;;
62704;SDS011;48767;50.754;8.772;2022-07-23T07:13:34;10.52;;;6.47;;
62704;SDS011;48767;50.754;8.772;2022-07-23T07:16:01;12.27;;;6.38;;
62704;SDS011;48767;50.754;8.772;2022-07-23T07:18:27;8.90;;;6.13;;
62704;SDS011;48767;50.754;8.772;2022-07-23T07:20:54;10.38;;;6.63;;
62704;SDS011;48767;50.754;8.772;2022-07-23T07:23:22;10.27;;;6.53;;
62704;SDS011;48767;50.754;8.772;2022-07-23T07:28:14;8.85;;;6.88;;
62704;SDS011;48767;50.754;8.772;2022-07-23T07:30:41;11.13;;;7.50;;
62704;SDS011;48767;50.754;8.772;2022-07-23T07:33:07;11.48;;;8.18;;
62704;SDS011;48767;50.754;8.772;2022-07-23T07:35:34;11.07;;;7.95;;
62704;SDS011;48767;50.754;8.772;2022-07-23T07:38:00;20.40;;;8.93;;
62704;SDS011;48767;50.754;8.772;2022-07-23T07:40:28;13.15;;;8.38;;
62704;SDS011;48767;50.754;8.772;2022-07-23T07:45:22;12.82;;;7.68;;
62704;SDS011;48767;50.754;8.772;2022-07-23T07:47:49;11.27;;;7.32;;
62704;SDS011;48767;50.754;8.772;2022-07-23T07:50:16;13.88;;;7.60;;
62704;SDS011;48767;50.754;8.772;2022-07-23T07:52:43;15.35;;;7.68;;
62704;SDS011;48767;50.754;8.772;2022-07-23T07:55:09;12.05;;;7.40;;
62704;SDS011;48767;50.754;8.772;2022-07-23T07:57:38;11.60;;;8.10;;
62704;SDS011;48767;50.754;8.772;2022-07-23T08:00:05;13.23;;;7.97;;
62704;SDS011;48767;50.754;8.772;2022-07-23T08:02:39;13.15;;;7.70;;
62704;SDS011;48767;50.754;8.772;2022-07-23T08:05:06;19.58;;;8.73;;
62704;SDS011;48767;50.754;8.772;2022-07-23T08:07:33;10.18;;;7.78;;
62704;SDS011;48767;50.754;8.772;2022-07-23T08:10:00;15.50;;;8.20;;
62704;SDS011;48767;50.754;8.772;2022-07-23T08:12:26;13.13;;;7.10;;
62704;SDS011;48767;50.754;8.772;2022-07-23T08:14:54;14.98;;;7.93;;
62704;SDS011;48767;50.754;8.772;2022-07-23T08:17:20;13.35;;;7.95;;
62704;SDS011;48767;50.754;8.772;2022-07-23T08:19:47;11.05;;;7.03;;
62704;SDS011;48767;50.754;8.772;2022-07-23T08:22:13;11.45;;;7.68;;
62704;SDS011;48767;50.754;8.772;2022-07-23T08:24:40;10.30;;;6.60;;
62704;SDS011;48767;50.754;8.772;2022-07-23T08:27:06;10.57;;;7.65;;
62704;SDS011;48767;50.754;8.772;2022-07-23T08:29:33;11.40;;;7.95;;
62704;SDS011;48767;50.754;8.772;2022-07-23T08:32:00;11.05;;;6.75;;
62704;SDS011;48767;50.754;8.772;2022-07-23T08:34:27;9.05;;;6.07;;
62704;SDS011;48767;50.754;8.772;2022-07-23T08:36:53;9.57;;;5.57;;
62704;SDS011;48767;50.754;8.772;2022-07-23T08:39:20;8.00;;;5.70;;
62704;SDS011;48767;50.754;8.772;2022-07-23T08:41:46;8.63;;;4.57;;
62704;SDS011;48767;50.754;8.772;2022-07-23T08:44:15;7.18;;;4.45;;
62704;SDS011;48767;50.754;8.772;2022-07-23T08:46:43;8.85;;;5.15;;
62704;SDS011;48767;50.754;8.772;2022-07-23T08:49:11;6.72;;;5.07;;
62704;SDS011;48767;50.754;8.772;2022-07-23T08:51:39;6.72;;;4.63;;
62704;SDS011;48767;50.754;8.772;2022-07-23T08:54:06;7.68;;;4.85;;
62704;SDS011;48767;50.754;8.772;2022-07-23T08:56:33;8.88;;;4.90;;
62704;SDS011;48767;50.754;8.772;2022-07-23T08:59:00;7.22;;;4.75;;
62704;SDS011;48767;50.754;8.772;2022-07-23T09:01:27;6.70;;;4.57;;
62704;SDS011;48767;50.754;8.772;2022-07-23T09:03:53;5.15;;;4.30;;
62704;SDS011;48767;50.754;8.772;2022-07-23T09:06:21;7.15;;;4.85;;
62704;SDS011;48767;50.754;8.772;2022-07-23T09:08:47;6.43;;;4.70;;
62704;SDS011;48767;50.754;8.772;2022-07-23T09:11:15;6.82;;;4.28;;
62704;SDS011;48767;50.754;8.772;2022-07-23T09:13:46;4.90;;;3.75;;
62704;SDS011;48767;50.754;8.772;2022-07-23T09:16:14;7.40;;;4.40;;
62704;SDS011;48767;50.754;8.772;2022-07-23T09:18:43;8.18;;;5.28;;
62704;SDS011;48767;50.754;8.772;2022-07-23T09:21:15;12.00;;;5.03;;
62704;SDS011;48767;50.754;8.772;2022-07-23T09:23:45;7.43;;;5.07;;
62704;SDS011;48767;50.754;8.772;2022-07-23T09:26:23;6.15;;;4.75;;
62704;SDS011;48767;50.754;8.772;2022-07-23T09:29:05;6.68;;;4.85;;
62704;SDS011;48767;50.754;8.772;2022-07-23T09:31:43;6.35;;;4.70;;
62704;SDS011;48767;50.754;8.772;2022-07-23T09:34:13;8.68;;;5.47;;
62704;SDS011;48767;50.754;8.772;2022-07-23T09:36:42;6.78;;;5.25;;
62704;SDS011;48767;50.754;8.772;2022-07-23T09:39:10;6.38;;;4.25;;
62704;SDS011;48767;50.754;8.772;2022-07-23T09:41:39;10.38;;;5.05;;
62704;SDS011;48767;50.754;8.772;2022-07-23T09:44:14;5.75;;;4.22;;
62704;SDS011;48767;50.754;8.772;2022-07-23T09:46:42;7.38;;;4.93;;
62704;SDS011;48767;50.754;8.772;2022-07-23T09:49:11;5.30;;;4.22;;
62704;SDS011;48767;50.754;8.772;2022-07-23T09:51:43;6.93;;;4.72;;
62704;SDS011;48767;50.754;8.772;2022-07-23T09:54:29;7.10;;;4.47;;
62704;SDS011;48767;50.754;8.772;2022-07-23T09:56:59;6.03;;;4.43;;
62704;SDS011;48767;50.754;8.772;2022-07-23T09:59:27;5.57;;;4.05;;
62704;SDS011;48767;50.754;8.772;2022-07-23T10:01:56;8.35;;;4.35;;
62704;SDS011;48767;50.754;8.772;2022-07-23T10:04:25;8.65;;;5.00;;
62704;SDS011;48767;50.754;8.772;2022-07-23T10:06:53;8.27;;;3.92;;
62704;SDS011;48767;50.754;8.772;2022-07-23T10:09:22;6.82;;;4.97;;
62704;SDS011;48767;50.754;8.772;2022-07-23T10:11:52;6.93;;;5.10;;
62704;SDS011;48767;50.754;8.772;2022-07-23T10:14:24;7.07;;;5.30;;
62704;SDS011;48767;50.754;8.772;2022-07-23T10:16:52;7.00;;;4.78;;
62704;SDS011;48767;50.754;8.772;2022-07-23T10:19:19;7.60;;;5.47;;
62704;SDS011;48767;50.754;8.772;2022-07-23T10:21:47;6.00;;;4.47;;
62704;SDS011;48767;50.754;8.772;2022-07-23T10:24:18;6.07;;;5.05;;
62704;SDS011;48767;50.754;8.772;2022-07-23T10:26:58;7.25;;;4.53;;
62704;SDS011;48767;50.754;8.772;2022-07-23T10:29:36;5.60;;;4.65;;
62704;SDS011;48767;50.754;8.772;2022-07-23T10:32:08;7.75;;;5.38;;
62704;SDS011;48767;50.754;8.772;2022-07-23T10:34:44;6.43;;;5.15;;
62704;SDS011;48767;50.754;8.772;2022-07-23T10:37:21;5.97;;;4.93;;
62704;SDS011;48767;50.754;8.772;2022-07-23T10:40:08;6.55;;;5.20;;
62704;SDS011;48767;50.754;8.772;2022-07-23T10:42:37;8.05;;;4.30;;
62704;SDS011;48767;50.754;8.772;2022-07-23T10:47:49;6.47;;;3.55;;
62704;SDS011;48767;50.754;8.772;2022-07-23T10:53:09;7.47;;;4.50;;
62704;SDS011;48767;50.754;8.772;2022-07-23T10:55:39;5.65;;;4.30;;
62704;SDS011;48767;50.754;8.772;2022-07-23T10:58:09;4.47;;;3.50;;
62704;SDS011;48767;50.754;8.772;2022-07-23T11:00:36;4.65;;;4.07;;
62704;SDS011;48767;50.754;8.772;2022-07-23T11:03:04;7.50;;;5.03;;
62704;SDS011;48767;50.754;8.772;2022-07-23T11:05:51;5.63;;;4.20;;
62704;SDS011;48767;50.754;8.772;2022-07-23T11:08:18;7.43;;;4.85;;
62704;SDS011;48767;50.754;8.772;2022-07-23T11:18:58;6.28;;;3.85;;
62704;SDS011;48767;50.754;8.772;2022-07-23T11:24:12;5.38;;;3.17;;
62704;SDS011;48767;50.754;8.772;2022-07-23T11:26:42;6.05;;;4.20;;
62704;SDS011;48767;50.754;8.772;2022-07-23T11:32:21;6.50;;;3.25;;
62704;SDS011;48767;50.754;8.772;2022-07-23T11:34:53;5.70;;;3.00;;
62704;SDS011;48767;50.754;8.772;2022-07-23T11:37:27;6.70;;;4.18;;
62704;SDS011;48767;50.754;8.772;2022-07-23T11:40:05;5.20;;;4.15;;
62704;SDS011;48767;50.754;8.772;2022-07-23T11:42:34;8.07;;;5.00;;
62704;SDS011;48767;50.754;8.772;2022-07-23T11:45:04;7.47;;;5.20;;
62704;SDS011;48767;50.754;8.772;2022-07-23T11:47:32;4.75;;;4.25;;
62704;SDS011;48767;50.754;8.772;2022-07-23T11:50:00;5.10;;;3.60;;
62704;SDS011;48767;50.754;8.772;2022-07-23T11:52:28;5.82;;;4.38;;
62704;SDS011;48767;50.754;8.772;2022-07-23T11:54:56;6.00;;;4.10;;
62704;SDS011;48767;50.754;8.772;2022-07-23T11:57:25;8.23;;;3.58;;
62704;SDS011;48767;50.754;8.772;2022-07-23T11:59:55;7.60;;;3.70;;
62704;SDS011;48767;50.754;8.772;2022-07-23T12:02:24;4.13;;;3.70;;
62704;SDS011;48767;50.754;8.772;2022-07-23T12:04:51;5.57;;;4.13;;
62704;SDS011;48767;50.754;8.772;2022-07-23T12:07:22;8.32;;;3.90;;
62704;SDS011;48767;50.754;8.772;2022-07-23T12:09:53;5.65;;;4.50;;
62704;SDS011;48767;50.754;8.772;2022-07-23T12:12:20;6.38;;;3.80;;
62704;SDS011;48767;50.754;8.772;2022-07-23T12:14:48;11.73;;;4.90;;
62704;SDS011;48767;50.754;8.772;2022-07-23T12:17:16;5.10;;;4.07;;
62704;SDS011;48767;50.754;8.772;2022-07-23T12:19:44;5.50;;;3.92;;
62704;SDS011;48767;50.754;8.772;2022-07-23T12:22:11;6.15;;;4.70;;
62704;SDS011;48767;50.754;8.772;2022-07-23T12:24:55;4.10;;;3.33;;
62704;SDS011;48767;50.754;8.772;2022-07-23T12:27:23;7.68;;;4.50;;
62704;SDS011;48767;50.754;8.772;2022-07-23T12:29:50;5.35;;;3.33;;
62704;SDS011;48767;50.754;8.772;2022-07-23T12:32:18;5.22;;;3.88;;
62704;SDS011;48767;50.754;8.772;2022-07-23T12:34:47;4.05;;;2.90;;
62704;SDS011;48767;50.754;8.772;2022-07-23T12:37:25;5.25;;;3.60;;
62704;SDS011;48767;50.754;8.772;2022-07-23T12:39:53;6.10;;;4.07;;
62704;SDS011;48767;50.754;8.772;2022-07-23T12:42:19;5.70;;;4.10;;
62704;SDS011;48767;50.754;8.772;2022-07-23T12:45:06;5.93;;;3.35;;
62704;SDS011;48767;50.754;8.772;2022-07-23T12:47:50;4.57;;;3.53;;
62704;SDS011;48767;50.754;8.772;2022-07-23T12:50:33;5.18;;;3.63;;
62704;SDS011;48767;50.754;8.772;2022-07-23T12:53:03;5.93;;;3.67;;
62704;SDS011;48767;50.754;8.772;2022-07-23T12:55:30;4.35;;;3.67;;
62704;SDS011;48767;50.754;8.772;2022-07-23T12:58:02;6.32;;;3.85;;
62704;SDS011;48767;50.754;8.772;2022-07-23T13:00:30;3.60;;;2.15;;
62704;SDS011;48767;50.754;8.772;2022-07-23T13:02:57;5.18;;;4.00;;
62704;SDS011;48767;50.754;8.772;2022-07-23T13:05:24;4.10;;;3.28;;
62704;SDS011;48767;50.754;8.772;2022-07-23T13:07:51;6.80;;;3.50;;
62704;SDS011;48767;50.754;8.772;2022-07-23T13:10:18;4.22;;;3.80;;
62704;SDS011;48767;50.754;8.772;2022-07-23T13:12:44;4.13;;;2.58;;
62704;SDS011;48767;50.754;8.772;2022-07-23T13:15:11;3.88;;;2.78;;
62704;SDS011;48767;50.754;8.772;2022-07-23T13:17:37;3.97;;;2.75;;
62704;SDS011;48767;50.754;8.772;2022-07-23T13:20:04;4.40;;;2.53;;
62704;SDS011;48767;50.754;8.772;2022-07-23T13:22:32;5.18;;;3.30;;
62704;SDS011;48767;50.754;8.772;2022-07-23T13:25:00;4.43;;;3.10;;
62704;SDS011;48767;50.754;8.772;2022-07-23T13:27:26;4.80;;;3.53;;
62704;SDS011;48767;50.754;8.772;2022-07-23T13:29:52;3.20;;;2.88;;
62704;SDS011;48767;50.754;8.772;2022-07-23T13:32:19;6.00;;;3.15;;
62704;SDS011;48767;50.754;8.772;2022-07-23T13:34:45;4.63;;;3.28;;
62704;SDS011;48767;50.754;8.772;2022-07-23T13:37:12;5.32;;;3.95;;
62704;SDS011;48767;50.754;8.772;2022-07-23T13:39:38;5.13;;;3.65;;
62704;SDS011;48767;50.754;8.772;2022-07-23T13:42:06;4.38;;;3.65;;
62704;SDS011;48767;50.754;8.772;2022-07-23T13:44:33;7.35;;;3.72;;
62704;SDS011;48767;50.754;8.772;2022-07-23T13:47:00;6.40;;;3.90;;
62704;SDS011;48767;50.754;8.772;2022-07-23T13:49:26;7.95;;;4.10;;
62704;SDS011;48767;50.754;8.772;2022-07-23T13:51:53;5.07;;;3.97;;
62704;SDS011;48767;50.754;8.772;2022-07-23T13:54:19;4.53;;;3.70;;
62704;SDS011;48767;50.754;8.772;2022-07-23T13:56:46;5.93;;;3.70;;
62704;SDS011;48767;50.754;8.772;2022-07-23T13:59:14;4.03;;;3.28;;
62704;SDS011;48767;50.754;8.772;2022-07-23T14:01:40;4.30;;;3.33;;
62704;SDS011;48767;50.754;8.772;2022-07-23T14:04:07;4.00;;;3.40;;
62704;SDS011;48767;50.754;8.772;2022-07-23T14:06:33;3.83;;;2.97;;
62704;SDS011;48767;50.754;8.772;2022-07-23T14:08:59;4.25;;;3.08;;
62704;SDS011;48767;50.754;8.772;2022-07-23T14:11:26;4.93;;;3.65;;
62704;SDS011;48767;50.754;8.772;2022-07-23T14:13:53;4.55;;;3.28;;
62704;SDS011;48767;50.754;8.772;2022-07-23T14:16:20;3.28;;;2.85;;
62704;SDS011;48767;50.754;8.772;2022-07-23T14:18:47;5.80;;;2.72;;
62704;SDS011;48767;50.754;8.772;2022-07-23T14:21:13;2.60;;;1.98;;
62704;SDS011;48767;50.754;8.772;2022-07-23T14:23:40;4.28;;;3.15;;
62704;SDS011;48767;50.754;8.772;2022-07-23T14:26:06;4.63;;;3.70;;
62704;SDS011;48767;50.754;8.772;2022-07-23T14:28:33;4.57;;;3.35;;
62704;SDS011;48767;50.754;8.772;2022-07-23T14:31:00;4.05;;;3.03;;
62704;SDS011;48767;50.754;8.772;2022-07-23T14:33:28;5.38;;;2.70;;
62704;SDS011;48767;50.754;8.772;2022-07-23T14:35:54;4.05;;;2.88;;
62704;SDS011;48767;50.754;8.772;2022-07-23T14:38:21;3.95;;;2.63;;
62704;SDS011;48767;50.754;8.772;2022-07-23T14:40:47;2.97;;;2.28;;
62704;SDS011;48767;50.754;8.772;2022-07-23T14:43:14;4.78;;;2.50;;
62704;SDS011;48767;50.754;8.772;2022-07-23T14:45:40;4.68;;;3.17;;
62704;SDS011;48767;50.754;8.772;2022-07-23T14:48:07;4.68;;;2.75;;
62704;SDS011;48767;50.754;8.772;2022-07-23T14:50:35;3.53;;;3.20;;
62704;SDS011;48767;50.754;8.772;2022-07-23T14:53:01;5.65;;;3.08;;
62704;SDS011;48767;50.754;8.772;2022-07-23T14:55:28;4.28;;;3.25;;
62704;SDS011;48767;50.754;8.772;2022-07-23T14:57:56;6.40;;;3.33;;
62704;SDS011;48767;50.754;8.772;2022-07-23T15:00:22;3.85;;;3.47;;
62704;SDS011;48767;50.754;8.772;2022-07-23T15:02:49;4.65;;;2.58;;
62704;SDS011;48767;50.754;8.772;2022-07-23T15:05:15;3.45;;;2.83;;
62704;SDS011;48767;50.754;8.772;2022-07-23T15:07:43;4.35;;;2.75;;
62704;SDS011;48767;50.754;8.772;2022-07-23T15:10:10;4.15;;;3.22;;
62704;SDS011;48767;50.754;8.772;2022-07-23T15:12:37;3.28;;;2.92;;
62704;SDS011;48767;50.754;8.772;2022-07-23T15:15:04;7.82;;;3.53;;
62704;SDS011;48767;50.754;8.772;2022-07-23T15:17:31;2.90;;;2.50;;
62704;SDS011;48767;50.754;8.772;2022-07-23T15:19:58;4.93;;;2.25;;
62704;SDS011;48767;50.754;8.772;2022-07-23T15:22:25;3.78;;;1.95;;